ESNK/KRF METAR and TAF weather

Enter ICAO airport designator
Station Type Date Time Source
ESNK METAR 2022/08/12 15:20 UTC NOAA

ESNK 121520Z 32008KT CAVOK 20/08 Q1022


Station Type Date Time Source
ESNK Decoded METAR 2022/08/12 15:20 UTC NOAA

Kramfors Flygplats, Sweden (ESNK) 63-03N 017-46E 19M
Aug 12, 2022 - 11:20 AM EDT / 2022.08.12 1520 UTC
Wind: from the NW (320 degrees) at 9 MPH (8 KT):0
Visibility: greater than 7 mile(s):0
Temperature: 68 F (20 C)
Dew Point: 46 F (8 C)
Relative Humidity: 45%
Pressure (altimeter): 30.18 in. Hg (1022 hPa)
ob: ESNK 121520Z 32008KT CAVOK 20/08 Q1022
cycle: 15

Station Type Date Time Source
ESNK TAF 2017/12/15 06:00 UTC NOAA

TAF
AMD ESNK 150654Z 1506/1521 35005KT 6000 -SN BKN016
TEMPO 1506/1521 2000 SN SG VV009

Example: see airport list